sensor_id;sensor_type;location;lat;lon;timestamp;P1;durP1;ratioP1;P2;durP2;ratioP2
71753;SDS011;59593;51.716;7.016;2022-12-18T00:00:43;64.57;;;32.60;;
71753;SDS011;59593;51.716;7.016;2022-12-18T00:03:09;67.27;;;33.10;;
71753;SDS011;59593;51.716;7.016;2022-12-18T00:05:35;66.13;;;31.80;;
71753;SDS011;59593;51.716;7.016;2022-12-18T00:08:01;64.90;;;31.63;;
71753;SDS011;59593;51.716;7.016;2022-12-18T00:10:27;70.83;;;33.03;;
71753;SDS011;59593;51.716;7.016;2022-12-18T00:12:53;68.10;;;31.43;;
71753;SDS011;59593;51.716;7.016;2022-12-18T00:15:19;58.37;;;30.30;;
71753;SDS011;59593;51.716;7.016;2022-12-18T00:17:45;55.30;;;28.70;;
71753;SDS011;59593;51.716;7.016;2022-12-18T00:20:10;57.47;;;29.00;;
71753;SDS011;59593;51.716;7.016;2022-12-18T00:22:36;57.17;;;29.03;;
71753;SDS011;59593;51.716;7.016;2022-12-18T00:25:02;56.87;;;28.90;;
71753;SDS011;59593;51.716;7.016;2022-12-18T00:27:28;53.17;;;28.33;;
71753;SDS011;59593;51.716;7.016;2022-12-18T00:29:53;61.23;;;30.20;;
71753;SDS011;59593;51.716;7.016;2022-12-18T00:32:19;61.47;;;30.30;;
71753;SDS011;59593;51.716;7.016;2022-12-18T00:34:44;57.17;;;28.87;;
71753;SDS011;59593;51.716;7.016;2022-12-18T00:37:10;56.83;;;28.53;;
71753;SDS011;59593;51.716;7.016;2022-12-18T00:39:35;53.00;;;27.37;;
71753;SDS011;59593;51.716;7.016;2022-12-18T00:42:01;52.93;;;27.07;;
71753;SDS011;59593;51.716;7.016;2022-12-18T00:44:45;62.37;;;27.77;;
71753;SDS011;59593;51.716;7.016;2022-12-18T00:47:10;53.97;;;26.83;;
71753;SDS011;59593;51.716;7.016;2022-12-18T00:49:36;53.57;;;26.17;;
71753;SDS011;59593;51.716;7.016;2022-12-18T00:52:01;49.07;;;26.77;;
71753;SDS011;59593;51.716;7.016;2022-12-18T00:54:27;51.27;;;26.90;;
71753;SDS011;59593;51.716;7.016;2022-12-18T00:56:53;49.00;;;26.97;;
71753;SDS011;59593;51.716;7.016;2022-12-18T00:59:20;48.43;;;25.17;;
71753;SDS011;59593;51.716;7.016;2022-12-18T01:01:45;47.27;;;25.40;;
71753;SDS011;59593;51.716;7.016;2022-12-18T01:04:11;45.50;;;25.03;;
71753;SDS011;59593;51.716;7.016;2022-12-18T01:06:37;46.00;;;25.70;;
71753;SDS011;59593;51.716;7.016;2022-12-18T01:09:02;46.47;;;24.97;;
71753;SDS011;59593;51.716;7.016;2022-12-18T01:11:28;44.97;;;24.83;;
71753;SDS011;59593;51.716;7.016;2022-12-18T01:13:54;48.93;;;26.03;;
71753;SDS011;59593;51.716;7.016;2022-12-18T01:16:20;44.90;;;24.73;;
71753;SDS011;59593;51.716;7.016;2022-12-18T01:18:45;45.77;;;24.77;;
71753;SDS011;59593;51.716;7.016;2022-12-18T01:21:12;44.87;;;24.50;;
71753;SDS011;59593;51.716;7.016;2022-12-18T01:23:41;48.50;;;25.23;;
71753;SDS011;59593;51.716;7.016;2022-12-18T01:26:10;45.47;;;24.27;;
71753;SDS011;59593;51.716;7.016;2022-12-18T01:28:39;49.80;;;25.40;;
71753;SDS011;59593;51.716;7.016;2022-12-18T01:31:21;42.13;;;24.67;;
71753;SDS011;59593;51.716;7.016;2022-12-18T01:33:49;43.10;;;24.70;;
71753;SDS011;59593;51.716;7.016;2022-12-18T01:36:34;46.27;;;26.10;;
71753;SDS011;59593;51.716;7.016;2022-12-18T01:39:03;41.33;;;24.47;;
71753;SDS011;59593;51.716;7.016;2022-12-18T01:41:31;46.43;;;25.70;;
71753;SDS011;59593;51.716;7.016;2022-12-18T01:50:04;45.10;;;24.73;;
71753;SDS011;59593;51.716;7.016;2022-12-18T01:52:34;45.53;;;25.33;;
71753;SDS011;59593;51.716;7.016;2022-12-18T01:55:02;42.27;;;23.90;;
71753;SDS011;59593;51.716;7.016;2022-12-18T01:57:29;42.90;;;23.60;;
71753;SDS011;59593;51.716;7.016;2022-12-18T01:59:56;42.30;;;23.57;;
71753;SDS011;59593;51.716;7.016;2022-12-18T02:02:26;41.97;;;24.47;;
71753;SDS011;59593;51.716;7.016;2022-12-18T02:04:53;48.10;;;24.73;;
71753;SDS011;59593;51.716;7.016;2022-12-18T02:07:37;42.33;;;24.27;;
71753;SDS011;59593;51.716;7.016;2022-12-18T02:10:25;41.77;;;22.40;;
71753;SDS011;59593;51.716;7.016;2022-12-18T02:15:36;41.00;;;22.70;;
71753;SDS011;59593;51.716;7.016;2022-12-18T02:18:10;39.47;;;23.43;;
71753;SDS011;59593;51.716;7.016;2022-12-18T02:20:59;43.03;;;23.30;;
71753;SDS011;59593;51.716;7.016;2022-12-18T02:23:40;45.13;;;25.30;;
71753;SDS011;59593;51.716;7.016;2022-12-18T02:26:27;45.63;;;23.83;;
71753;SDS011;59593;51.716;7.016;2022-12-18T02:29:00;41.90;;;23.90;;
71753;SDS011;59593;51.716;7.016;2022-12-18T02:31:30;41.07;;;23.57;;
71753;SDS011;59593;51.716;7.016;2022-12-18T02:34:08;43.00;;;24.27;;
71753;SDS011;59593;51.716;7.016;2022-12-18T02:36:36;43.93;;;24.77;;
71753;SDS011;59593;51.716;7.016;2022-12-18T02:39:05;45.43;;;25.97;;
71753;SDS011;59593;51.716;7.016;2022-12-18T02:41:34;44.50;;;24.83;;
71753;SDS011;59593;51.716;7.016;2022-12-18T02:44:06;43.47;;;26.27;;
71753;SDS011;59593;51.716;7.016;2022-12-18T02:46:38;48.13;;;26.53;;
71753;SDS011;59593;51.716;7.016;2022-12-18T02:57:50;44.33;;;23.33;;
71753;SDS011;59593;51.716;7.016;2022-12-18T03:00:24;38.10;;;21.83;;
71753;SDS011;59593;51.716;7.016;2022-12-18T03:03:16;40.33;;;22.53;;
71753;SDS011;59593;51.716;7.016;2022-12-18T03:05:56;35.43;;;21.03;;
71753;SDS011;59593;51.716;7.016;2022-12-18T03:08:35;34.70;;;20.40;;
71753;SDS011;59593;51.716;7.016;2022-12-18T03:11:05;35.20;;;20.27;;
71753;SDS011;59593;51.716;7.016;2022-12-18T03:13:37;34.83;;;20.50;;
71753;SDS011;59593;51.716;7.016;2022-12-18T03:16:10;38.13;;;21.30;;
71753;SDS011;59593;51.716;7.016;2022-12-18T03:18:45;35.73;;;20.13;;
71753;SDS011;59593;51.716;7.016;2022-12-18T03:21:14;36.10;;;21.40;;
71753;SDS011;59593;51.716;7.016;2022-12-18T03:23:44;39.00;;;21.97;;
71753;SDS011;59593;51.716;7.016;2022-12-18T03:26:15;43.27;;;21.97;;
71753;SDS011;59593;51.716;7.016;2022-12-18T03:28:45;34.70;;;21.43;;
71753;SDS011;59593;51.716;7.016;2022-12-18T03:31:16;40.33;;;22.40;;
71753;SDS011;59593;51.716;7.016;2022-12-18T03:33:46;39.27;;;22.37;;
71753;SDS011;59593;51.716;7.016;2022-12-18T03:36:16;38.77;;;21.37;;
71753;SDS011;59593;51.716;7.016;2022-12-18T03:38:42;40.07;;;21.93;;
71753;SDS011;59593;51.716;7.016;2022-12-18T03:43:54;36.10;;;21.23;;
71753;SDS011;59593;51.716;7.016;2022-12-18T03:46:32;36.57;;;21.40;;
71753;SDS011;59593;51.716;7.016;2022-12-18T03:49:05;37.57;;;21.30;;
71753;SDS011;59593;51.716;7.016;2022-12-18T03:51:40;35.10;;;21.27;;
71753;SDS011;59593;51.716;7.016;2022-12-18T03:54:13;35.50;;;20.30;;
71753;SDS011;59593;51.716;7.016;2022-12-18T03:56:40;39.70;;;22.00;;
71753;SDS011;59593;51.716;7.016;2022-12-18T03:59:11;34.60;;;21.10;;
71753;SDS011;59593;51.716;7.016;2022-12-18T04:01:40;37.03;;;20.77;;
71753;SDS011;59593;51.716;7.016;2022-12-18T04:04:11;38.07;;;21.53;;
71753;SDS011;59593;51.716;7.016;2022-12-18T04:06:39;40.50;;;23.53;;
71753;SDS011;59593;51.716;7.016;2022-12-18T04:09:07;41.07;;;24.07;;
71753;SDS011;59593;51.716;7.016;2022-12-18T04:11:32;39.10;;;22.97;;
71753;SDS011;59593;51.716;7.016;2022-12-18T04:13:58;46.60;;;26.77;;
71753;SDS011;59593;51.716;7.016;2022-12-18T04:16:27;43.47;;;24.53;;
71753;SDS011;59593;51.716;7.016;2022-12-18T04:18:54;40.47;;;24.10;;
71753;SDS011;59593;51.716;7.016;2022-12-18T04:21:19;40.63;;;23.77;;
71753;SDS011;59593;51.716;7.016;2022-12-18T04:23:45;34.60;;;20.63;;
71753;SDS011;59593;51.716;7.016;2022-12-18T04:26:11;35.53;;;20.07;;
71753;SDS011;59593;51.716;7.016;2022-12-18T04:28:36;37.13;;;22.23;;
71753;SDS011;59593;51.716;7.016;2022-12-18T04:31:02;39.57;;;21.77;;
71753;SDS011;59593;51.716;7.016;2022-12-18T04:33:28;32.50;;;20.07;;
71753;SDS011;59593;51.716;7.016;2022-12-18T04:35:53;34.27;;;19.70;;
71753;SDS011;59593;51.716;7.016;2022-12-18T04:38:19;35.10;;;20.67;;
71753;SDS011;59593;51.716;7.016;2022-12-18T04:40:44;31.43;;;18.80;;
71753;SDS011;59593;51.716;7.016;2022-12-18T04:43:10;34.43;;;19.40;;
71753;SDS011;59593;51.716;7.016;2022-12-18T04:45:36;33.53;;;19.50;;
71753;SDS011;59593;51.716;7.016;2022-12-18T04:48:02;34.97;;;19.33;;
71753;SDS011;59593;51.716;7.016;2022-12-18T04:50:28;31.33;;;19.00;;
71753;SDS011;59593;51.716;7.016;2022-12-18T04:52:54;33.40;;;19.17;;
71753;SDS011;59593;51.716;7.016;2022-12-18T04:55:20;31.33;;;18.23;;
71753;SDS011;59593;51.716;7.016;2022-12-18T04:57:46;30.47;;;18.33;;
71753;SDS011;59593;51.716;7.016;2022-12-18T05:00:12;31.07;;;18.07;;
71753;SDS011;59593;51.716;7.016;2022-12-18T05:02:38;31.23;;;18.70;;
71753;SDS011;59593;51.716;7.016;2022-12-18T05:05:03;31.17;;;18.30;;
71753;SDS011;59593;51.716;7.016;2022-12-18T05:07:29;32.13;;;18.83;;
71753;SDS011;59593;51.716;7.016;2022-12-18T05:09:55;34.53;;;18.90;;
71753;SDS011;59593;51.716;7.016;2022-12-18T05:12:24;32.13;;;18.23;;
71753;SDS011;59593;51.716;7.016;2022-12-18T05:14:50;31.70;;;18.83;;
71753;SDS011;59593;51.716;7.016;2022-12-18T05:17:15;36.23;;;19.37;;
71753;SDS011;59593;51.716;7.016;2022-12-18T05:19:41;30.10;;;18.43;;
71753;SDS011;59593;51.716;7.016;2022-12-18T05:22:07;30.30;;;18.77;;
71753;SDS011;59593;51.716;7.016;2022-12-18T05:24:32;32.80;;;18.67;;
71753;SDS011;59593;51.716;7.016;2022-12-18T05:26:58;30.73;;;18.43;;
71753;SDS011;59593;51.716;7.016;2022-12-18T05:29:24;30.90;;;18.30;;
71753;SDS011;59593;51.716;7.016;2022-12-18T05:31:49;32.07;;;18.07;;
71753;SDS011;59593;51.716;7.016;2022-12-18T05:34:15;29.87;;;18.20;;
71753;SDS011;59593;51.716;7.016;2022-12-18T05:36:41;33.60;;;18.90;;
71753;SDS011;59593;51.716;7.016;2022-12-18T05:39:06;30.57;;;18.37;;
71753;SDS011;59593;51.716;7.016;2022-12-18T05:41:32;32.67;;;19.43;;
71753;SDS011;59593;51.716;7.016;2022-12-18T05:43:58;31.07;;;19.57;;
71753;SDS011;59593;51.716;7.016;2022-12-18T05:46:24;32.50;;;19.73;;
71753;SDS011;59593;51.716;7.016;2022-12-18T05:48:50;32.43;;;18.90;;
71753;SDS011;59593;51.716;7.016;2022-12-18T05:51:17;31.27;;;19.47;;
71753;SDS011;59593;51.716;7.016;2022-12-18T05:53:44;31.20;;;19.40;;
71753;SDS011;59593;51.716;7.016;2022-12-18T05:56:14;35.70;;;19.73;;
71753;SDS011;59593;51.716;7.016;2022-12-18T05:58:42;33.10;;;19.00;;
71753;SDS011;59593;51.716;7.016;2022-12-18T06:01:10;34.60;;;19.77;;
71753;SDS011;59593;51.716;7.016;2022-12-18T06:03:36;30.50;;;18.33;;
71753;SDS011;59593;51.716;7.016;2022-12-18T06:06:02;32.10;;;18.67;;
71753;SDS011;59593;51.716;7.016;2022-12-18T06:08:28;34.57;;;19.57;;
71753;SDS011;59593;51.716;7.016;2022-12-18T06:10:53;32.90;;;18.67;;
71753;SDS011;59593;51.716;7.016;2022-12-18T06:13:19;32.77;;;20.43;;
71753;SDS011;59593;51.716;7.016;2022-12-18T06:15:45;33.23;;;19.77;;
71753;SDS011;59593;51.716;7.016;2022-12-18T06:18:11;30.30;;;19.50;;
71753;SDS011;59593;51.716;7.016;2022-12-18T06:20:37;32.80;;;19.43;;
71753;SDS011;59593;51.716;7.016;2022-12-18T06:23:04;27.43;;;17.80;;
71753;SDS011;59593;51.716;7.016;2022-12-18T06:25:30;29.97;;;18.17;;
71753;SDS011;59593;51.716;7.016;2022-12-18T06:27:56;33.67;;;19.27;;
71753;SDS011;59593;51.716;7.016;2022-12-18T06:30:22;28.57;;;18.70;;
71753;SDS011;59593;51.716;7.016;2022-12-18T06:32:48;31.77;;;18.93;;
71753;SDS011;59593;51.716;7.016;2022-12-18T06:35:14;30.80;;;18.17;;
71753;SDS011;59593;51.716;7.016;2022-12-18T06:37:40;30.07;;;17.73;;
71753;SDS011;59593;51.716;7.016;2022-12-18T06:40:05;29.57;;;17.77;;
71753;SDS011;59593;51.716;7.016;2022-12-18T06:42:31;29.20;;;18.13;;
71753;SDS011;59593;51.716;7.016;2022-12-18T06:44:57;31.13;;;18.50;;
71753;SDS011;59593;51.716;7.016;2022-12-18T06:47:23;30.83;;;18.27;;
71753;SDS011;59593;51.716;7.016;2022-12-18T06:49:48;31.10;;;19.13;;
71753;SDS011;59593;51.716;7.016;2022-12-18T06:52:14;35.60;;;20.37;;
71753;SDS011;59593;51.716;7.016;2022-12-18T06:54:40;29.50;;;17.70;;
71753;SDS011;59593;51.716;7.016;2022-12-18T06:57:05;29.47;;;17.07;;
71753;SDS011;59593;51.716;7.016;2022-12-18T06:59:31;33.10;;;18.50;;
71753;SDS011;59593;51.716;7.016;2022-12-18T07:01:56;30.13;;;18.63;;
71753;SDS011;59593;51.716;7.016;2022-12-18T07:04:22;27.30;;;17.47;;
71753;SDS011;59593;51.716;7.016;2022-12-18T07:06:53;28.23;;;17.80;;
71753;SDS011;59593;51.716;7.016;2022-12-18T07:09:18;27.80;;;17.70;;
71753;SDS011;59593;51.716;7.016;2022-12-18T07:11:44;29.23;;;17.67;;
71753;SDS011;59593;51.716;7.016;2022-12-18T07:14:10;29.43;;;17.10;;
71753;SDS011;59593;51.716;7.016;2022-12-18T07:16:35;29.43;;;17.43;;
71753;SDS011;59593;51.716;7.016;2022-12-18T07:19:01;29.20;;;18.20;;
71753;SDS011;59593;51.716;7.016;2022-12-18T07:21:26;30.97;;;18.57;;
71753;SDS011;59593;51.716;7.016;2022-12-18T07:23:52;30.07;;;18.80;;
71753;SDS011;59593;51.716;7.016;2022-12-18T07:26:19;27.13;;;16.90;;
71753;SDS011;59593;51.716;7.016;2022-12-18T07:28:45;28.33;;;17.53;;
71753;SDS011;59593;51.716;7.016;2022-12-18T07:31:19;29.53;;;17.77;;
71753;SDS011;59593;51.716;7.016;2022-12-18T07:33:46;28.67;;;17.17;;
71753;SDS011;59593;51.716;7.016;2022-12-18T07:36:13;28.50;;;17.13;;
71753;SDS011;59593;51.716;7.016;2022-12-18T07:38:39;29.53;;;17.53;;
71753;SDS011;59593;51.716;7.016;2022-12-18T07:41:12;28.53;;;16.77;;
71753;SDS011;59593;51.716;7.016;2022-12-18T07:43:38;28.60;;;17.23;;
71753;SDS011;59593;51.716;7.016;2022-12-18T07:46:04;26.27;;;16.37;;
71753;SDS011;59593;51.716;7.016;2022-12-18T07:48:31;24.33;;;16.50;;
71753;SDS011;59593;51.716;7.016;2022-12-18T07:51:04;25.87;;;16.57;;
71753;SDS011;59593;51.716;7.016;2022-12-18T07:53:31;26.87;;;15.70;;
71753;SDS011;59593;51.716;7.016;2022-12-18T07:55:58;26.67;;;16.77;;
71753;SDS011;59593;51.716;7.016;2022-12-18T07:58:25;27.40;;;16.60;;
71753;SDS011;59593;51.716;7.016;2022-12-18T08:00:51;28.67;;;16.80;;
71753;SDS011;59593;51.716;7.016;2022-12-18T08:03:17;28.90;;;16.03;;
71753;SDS011;59593;51.716;7.016;2022-12-18T08:05:43;24.53;;;15.87;;
71753;SDS011;59593;51.716;7.016;2022-12-18T08:08:09;24.80;;;16.33;;
71753;SDS011;59593;51.716;7.016;2022-12-18T08:10:34;25.50;;;16.10;;
71753;SDS011;59593;51.716;7.016;2022-12-18T08:13:00;26.70;;;16.50;;
71753;SDS011;59593;51.716;7.016;2022-12-18T08:15:25;28.50;;;17.57;;
71753;SDS011;59593;51.716;7.016;2022-12-18T08:17:51;25.67;;;16.13;;
71753;SDS011;59593;51.716;7.016;2022-12-18T08:20:17;27.57;;;16.93;;
71753;SDS011;59593;51.716;7.016;2022-12-18T08:22:43;26.60;;;16.57;;
71753;SDS011;59593;51.716;7.016;2022-12-18T08:25:09;23.00;;;15.03;;
71753;SDS011;59593;51.716;7.016;2022-12-18T08:27:35;28.63;;;17.20;;
71753;SDS011;59593;51.716;7.016;2022-12-18T08:30:01;26.30;;;16.60;;
71753;SDS011;59593;51.716;7.016;2022-12-18T08:32:28;23.87;;;14.87;;
71753;SDS011;59593;51.716;7.016;2022-12-18T08:34:53;23.63;;;14.40;;
71753;SDS011;59593;51.716;7.016;2022-12-18T08:37:19;23.70;;;14.73;;
71753;SDS011;59593;51.716;7.016;2022-12-18T08:39:44;23.33;;;15.30;;
71753;SDS011;59593;51.716;7.016;2022-12-18T08:42:10;23.97;;;15.13;;
71753;SDS011;59593;51.716;7.016;2022-12-18T08:44:54;28.17;;;17.07;;
71753;SDS011;59593;51.716;7.016;2022-12-18T08:47:20;28.97;;;16.77;;
71753;SDS011;59593;51.716;7.016;2022-12-18T08:49:45;25.20;;;15.77;;
71753;SDS011;59593;51.716;7.016;2022-12-18T08:52:11;28.07;;;15.60;;
71753;SDS011;59593;51.716;7.016;2022-12-18T08:54:37;24.63;;;15.43;;
71753;SDS011;59593;51.716;7.016;2022-12-18T08:57:02;21.60;;;14.70;;
71753;SDS011;59593;51.716;7.016;2022-12-18T08:59:28;22.43;;;15.10;;
71753;SDS011;59593;51.716;7.016;2022-12-18T09:01:54;22.43;;;14.27;;
71753;SDS011;59593;51.716;7.016;2022-12-18T09:04:20;20.63;;;13.93;;
71753;SDS011;59593;51.716;7.016;2022-12-18T09:06:46;21.27;;;13.63;;
71753;SDS011;59593;51.716;7.016;2022-12-18T09:09:12;23.10;;;14.67;;
71753;SDS011;59593;51.716;7.016;2022-12-18T09:11:38;21.97;;;13.67;;
71753;SDS011;59593;51.716;7.016;2022-12-18T09:14:03;21.30;;;13.83;;
71753;SDS011;59593;51.716;7.016;2022-12-18T09:16:29;20.73;;;13.30;;
71753;SDS011;59593;51.716;7.016;2022-12-18T09:18:56;21.63;;;13.40;;
71753;SDS011;59593;51.716;7.016;2022-12-18T09:21:26;19.53;;;12.93;;
71753;SDS011;59593;51.716;7.016;2022-12-18T09:23:54;18.97;;;12.77;;
71753;SDS011;59593;51.716;7.016;2022-12-18T09:26:23;18.70;;;12.40;;
71753;SDS011;59593;51.716;7.016;2022-12-18T09:28:50;21.30;;;13.47;;
71753;SDS011;59593;51.716;7.016;2022-12-18T09:31:17;16.67;;;11.93;;
71753;SDS011;59593;51.716;7.016;2022-12-18T09:33:44;17.80;;;12.40;;
71753;SDS011;59593;51.716;7.016;2022-12-18T09:36:13;17.07;;;11.73;;
71753;SDS011;59593;51.716;7.016;2022-12-18T09:38:40;17.03;;;12.07;;
71753;SDS011;59593;51.716;7.016;2022-12-18T09:41:16;19.07;;;12.53;;
71753;SDS011;59593;51.716;7.016;2022-12-18T09:43:45;22.20;;;14.07;;
71753;SDS011;59593;51.716;7.016;2022-12-18T09:46:18;21.80;;;13.67;;
71753;SDS011;59593;51.716;7.016;2022-12-18T09:48:50;18.50;;;12.30;;
71753;SDS011;59593;51.716;7.016;2022-12-18T09:51:21;16.70;;;11.03;;
71753;SDS011;59593;51.716;7.016;2022-12-18T09:53:53;16.53;;;11.67;;
71753;SDS011;59593;51.716;7.016;2022-12-18T09:56:23;19.73;;;12.93;;
71753;SDS011;59593;51.716;7.016;2022-12-18T09:58:59;20.67;;;13.43;;
71753;SDS011;59593;51.716;7.016;2022-12-18T10:01:27;20.13;;;13.93;;
71753;SDS011;59593;51.716;7.016;2022-12-18T10:03:57;18.27;;;13.10;;
71753;SDS011;59593;51.716;7.016;2022-12-18T10:06:31;16.90;;;11.30;;
71753;SDS011;59593;51.716;7.016;2022-12-18T10:12:05;16.50;;;10.80;;
71753;SDS011;59593;51.716;7.016;2022-12-18T10:17:41;17.07;;;11.30;;
71753;SDS011;59593;51.716;7.016;2022-12-18T10:20:39;19.23;;;12.80;;
71753;SDS011;59593;51.716;7.016;2022-12-18T10:26:23;17.77;;;12.27;;
71753;SDS011;59593;51.716;7.016;2022-12-18T10:28:49;14.17;;;11.10;;
71753;SDS011;59593;51.716;7.016;2022-12-18T10:31:18;18.60;;;11.70;;
71753;SDS011;59593;51.716;7.016;2022-12-18T10:33:47;15.70;;;10.73;;
71753;SDS011;59593;51.716;7.016;2022-12-18T10:36:12;16.30;;;12.17;;
71753;SDS011;59593;51.716;7.016;2022-12-18T10:38:38;16.33;;;11.23;;
71753;SDS011;59593;51.716;7.016;2022-12-18T10:44:12;16.30;;;10.93;;
71753;SDS011;59593;51.716;7.016;2022-12-18T10:46:48;15.87;;;10.87;;
71753;SDS011;59593;51.716;7.016;2022-12-18T10:49:22;15.73;;;10.97;;
71753;SDS011;59593;51.716;7.016;2022-12-18T10:51:48;14.40;;;10.07;;
71753;SDS011;59593;51.716;7.016;2022-12-18T10:56:43;15.77;;;10.80;;
71753;SDS011;59593;51.716;7.016;2022-12-18T10:59:10;14.13;;;10.40;;
71753;SDS011;59593;51.716;7.016;2022-12-18T11:04:50;14.97;;;9.73;;
71753;SDS011;59593;51.716;7.016;2022-12-18T11:07:17;15.03;;;9.97;;
71753;SDS011;59593;51.716;7.016;2022-12-18T11:09:42;15.90;;;10.20;;
71753;SDS011;59593;51.716;7.016;2022-12-18T11:12:15;12.87;;;9.57;;
71753;SDS011;59593;51.716;7.016;2022-12-18T11:14:45;15.67;;;10.03;;
71753;SDS011;59593;51.716;7.016;2022-12-18T11:17:20;13.80;;;9.67;;
71753;SDS011;59593;51.716;7.016;2022-12-18T11:20:00;15.30;;;10.07;;
71753;SDS011;59593;51.716;7.016;2022-12-18T11:22:29;15.73;;;10.40;;
71753;SDS011;59593;51.716;7.016;2022-12-18T11:25:00;14.73;;;10.03;;
71753;SDS011;59593;51.716;7.016;2022-12-18T11:27:30;15.93;;;10.93;;
71753;SDS011;59593;51.716;7.016;2022-12-18T11:32:48;16.80;;;11.43;;
71753;SDS011;59593;51.716;7.016;2022-12-18T11:35:22;16.33;;;10.57;;
71753;SDS011;59593;51.716;7.016;2022-12-18T11:38:19;14.90;;;10.37;;
71753;SDS011;59593;51.716;7.016;2022-12-18T11:41:02;16.07;;;10.63;;
71753;SDS011;59593;51.716;7.016;2022-12-18T11:43:50;17.33;;;10.40;;
71753;SDS011;59593;51.716;7.016;2022-12-18T11:46:25;16.40;;;11.30;;
71753;SDS011;59593;51.716;7.016;2022-12-18T11:48:59;16.50;;;11.10;;
71753;SDS011;59593;51.716;7.016;2022-12-18T11:51:43;19.37;;;12.20;;
71753;SDS011;59593;51.716;7.016;2022-12-18T11:54:23;18.57;;;13.20;;
71753;SDS011;59593;51.716;7.016;2022-12-18T11:57:10;16.80;;;11.47;;
71753;SDS011;59593;51.716;7.016;2022-12-18T12:00:00;17.80;;;12.23;;
71753;SDS011;59593;51.716;7.016;2022-12-18T12:05:23;15.67;;;11.00;;
71753;SDS011;59593;51.716;7.016;2022-12-18T12:13:34;15.10;;;11.07;;
71753;SDS011;59593;51.716;7.016;2022-12-18T12:19:01;14.90;;;10.10;;
71753;SDS011;59593;51.716;7.016;2022-12-18T12:21:46;16.50;;;10.80;;
71753;SDS011;59593;51.716;7.016;2022-12-18T12:29:49;16.53;;;9.90;;
71753;SDS011;59593;51.716;7.016;2022-12-18T12:38:09;13.53;;;9.50;;
71753;SDS011;59593;51.716;7.016;2022-12-18T12:40:41;13.27;;;9.60;;
71753;SDS011;59593;51.716;7.016;2022-12-18T12:43:22;12.87;;;9.50;;
71753;SDS011;59593;51.716;7.016;2022-12-18T12:46:12;15.37;;;9.77;;
71753;SDS011;59593;51.716;7.016;2022-12-18T12:48:51;14.50;;;9.93;;
71753;SDS011;59593;51.716;7.016;2022-12-18T12:51:29;14.57;;;10.20;;
71753;SDS011;59593;51.716;7.016;2022-12-18T12:53:58;16.33;;;10.30;;
71753;SDS011;59593;51.716;7.016;2022-12-18T12:56:36;13.63;;;9.47;;
71753;SDS011;59593;51.716;7.016;2022-12-18T13:01:41;13.63;;;9.43;;
71753;SDS011;59593;51.716;7.016;2022-12-18T13:12:51;14.57;;;9.17;;
71753;SDS011;59593;51.716;7.016;2022-12-18T13:15:28;11.83;;;9.07;;
71753;SDS011;59593;51.716;7.016;2022-12-18T13:20:33;13.70;;;9.40;;
71753;SDS011;59593;51.716;7.016;2022-12-18T13:23:00;15.97;;;9.67;;
71753;SDS011;59593;51.716;7.016;2022-12-18T13:25:26;11.90;;;9.33;;
71753;SDS011;59593;51.716;7.016;2022-12-18T13:27:57;14.17;;;9.40;;
71753;SDS011;59593;51.716;7.016;2022-12-18T13:40:59;13.40;;;9.40;;
71753;SDS011;59593;51.716;7.016;2022-12-18T13:46:50;12.87;;;9.30;;
71753;SDS011;59593;51.716;7.016;2022-12-18T13:49:20;13.57;;;9.30;;
71753;SDS011;59593;51.716;7.016;2022-12-18T13:52:15;13.70;;;9.43;;
71753;SDS011;59593;51.716;7.016;2022-12-18T13:54:45;12.97;;;9.40;;
71753;SDS011;59593;51.716;7.016;2022-12-18T13:57:33;12.33;;;9.03;;
71753;SDS011;59593;51.716;7.016;2022-12-18T14:02:47;13.23;;;9.37;;
71753;SDS011;59593;51.716;7.016;2022-12-18T14:05:34;17.03;;;10.53;;
71753;SDS011;59593;51.716;7.016;2022-12-18T14:08:10;32.93;;;17.60;;
71753;SDS011;59593;51.716;7.016;2022-12-18T14:10:42;16.60;;;11.97;;
71753;SDS011;59593;51.716;7.016;2022-12-18T14:13:17;17.93;;;12.87;;
71753;SDS011;59593;51.716;7.016;2022-12-18T14:15:55;18.63;;;13.27;;
71753;SDS011;59593;51.716;7.016;2022-12-18T14:18:26;19.53;;;14.53;;
71753;SDS011;59593;51.716;7.016;2022-12-18T14:20:59;13.37;;;9.03;;
71753;SDS011;59593;51.716;7.016;2022-12-18T14:23:36;15.33;;;10.00;;
71753;SDS011;59593;51.716;7.016;2022-12-18T14:28:53;13.63;;;10.03;;
71753;SDS011;59593;51.716;7.016;2022-12-18T14:31:23;10.73;;;8.27;;
71753;SDS011;59593;51.716;7.016;2022-12-18T14:33:51;12.97;;;9.23;;
71753;SDS011;59593;51.716;7.016;2022-12-18T14:36:22;13.43;;;9.30;;
71753;SDS011;59593;51.716;7.016;2022-12-18T14:38:50;11.60;;;8.73;;
71753;SDS011;59593;51.716;7.016;2022-12-18T14:41:20;12.37;;;8.67;;
71753;SDS011;59593;51.716;7.016;2022-12-18T14:43:47;11.57;;;9.10;;
71753;SDS011;59593;51.716;7.016;2022-12-18T14:46:25;12.33;;;8.07;;
71753;SDS011;59593;51.716;7.016;2022-12-18T14:51:55;13.23;;;10.03;;
71753;SDS011;59593;51.716;7.016;2022-12-18T14:54:23;12.80;;;9.10;;
71753;SDS011;59593;51.716;7.016;2022-12-18T14:56:51;14.73;;;9.53;;
71753;SDS011;59593;51.716;7.016;2022-12-18T14:59:27;14.27;;;9.47;;
71753;SDS011;59593;51.716;7.016;2022-12-18T15:01:57;13.80;;;9.90;;
71753;SDS011;59593;51.716;7.016;2022-12-18T15:04:31;11.77;;;9.40;;
71753;SDS011;59593;51.716;7.016;2022-12-18T15:09:38;12.60;;;9.70;;
71753;SDS011;59593;51.716;7.016;2022-12-18T15:12:16;14.63;;;9.90;;
71753;SDS011;59593;51.716;7.016;2022-12-18T15:14:49;13.70;;;10.23;;
71753;SDS011;59593;51.716;7.016;2022-12-18T15:17:19;14.40;;;11.10;;
71753;SDS011;59593;51.716;7.016;2022-12-18T15:19:50;13.73;;;11.27;;
71753;SDS011;59593;51.716;7.016;2022-12-18T15:24:48;15.17;;;10.50;;
71753;SDS011;59593;51.716;7.016;2022-12-18T15:27:29;13.97;;;10.40;;
71753;SDS011;59593;51.716;7.016;2022-12-18T15:32:37;15.30;;;10.70;;
71753;SDS011;59593;51.716;7.016;2022-12-18T15:37:48;17.73;;;11.80;;
71753;SDS011;59593;51.716;7.016;2022-12-18T15:40:17;19.43;;;14.20;;
71753;SDS011;59593;51.716;7.016;2022-12-18T15:42:46;16.57;;;12.87;;
71753;SDS011;59593;51.716;7.016;2022-12-18T15:45:31;15.60;;;11.53;;
71753;SDS011;59593;51.716;7.016;2022-12-18T15:47:57;16.60;;;10.93;;
71753;SDS011;59593;51.716;7.016;2022-12-18T15:50:23;14.63;;;10.90;;
71753;SDS011;59593;51.716;7.016;2022-12-18T15:52:50;16.43;;;11.13;;
71753;SDS011;59593;51.716;7.016;2022-12-18T15:55:21;17.10;;;11.27;;
71753;SDS011;59593;51.716;7.016;2022-12-18T15:58:07;15.83;;;10.90;;
71753;SDS011;59593;51.716;7.016;2022-12-18T16:00:34;15.73;;;11.23;;
71753;SDS011;59593;51.716;7.016;2022-12-18T16:03:02;13.57;;;10.70;;
71753;SDS011;59593;51.716;7.016;2022-12-18T16:05:29;13.90;;;11.03;;
71753;SDS011;59593;51.716;7.016;2022-12-18T16:07:55;15.23;;;11.87;;
71753;SDS011;59593;51.716;7.016;2022-12-18T16:10:20;16.43;;;12.20;;
71753;SDS011;59593;51.716;7.016;2022-12-18T16:12:46;15.57;;;12.07;;
71753;SDS011;59593;51.716;7.016;2022-12-18T16:15:13;16.40;;;11.77;;
71753;SDS011;59593;51.716;7.016;2022-12-18T16:17:40;15.00;;;10.90;;
71753;SDS011;59593;51.716;7.016;2022-12-18T16:20:13;15.37;;;11.13;;
71753;SDS011;59593;51.716;7.016;2022-12-18T16:22:41;18.43;;;12.60;;
71753;SDS011;59593;51.716;7.016;2022-12-18T16:25:19;15.77;;;11.60;;
71753;SDS011;59593;51.716;7.016;2022-12-18T16:27:49;18.93;;;12.70;;